Time;durP1;ratioP1;P1;durP2;ratioP2;P2;SDS_P1;SDS_P2;PMS_P1;PMS_P2;Temp;Humidity;BMP_temperature;BMP_pressure;BME280_temperature;BME280_humidity;BME280_pressure;Samples;Min_cycle;Max_cycle;Signal;HPM_P1;HPM_P2
2024/01/24 00:01:22;;;;;;;5.33;4.00;;;1.50;99.90;;;;;;5094117;28;20253;-76
2024/01/24 00:03:48;;;;;;;4.70;3.70;;;1.50;99.90;;;;;;5093459;28;20240;-77
2024/01/24 00:06:14;;;;;;;4.20;3.47;;;1.50;99.90;;;;;;5091732;28;20171;-77
2024/01/24 00:08:40;;;;;;;3.93;3.30;;;1.50;99.90;;;;;;5092874;28;20181;-76
2024/01/24 00:11:06;;;;;;;5.17;3.80;;;1.60;99.90;;;;;;5091705;28;20171;-76
2024/01/24 00:13:32;;;;;;;5.10;3.87;;;1.60;99.90;;;;;;5092396;28;20196;-76
2024/01/24 00:15:57;;;;;;;4.07;3.50;;;1.60;99.90;;;;;;5091551;28;20178;-78
2024/01/24 00:18:23;;;;;;;5.47;3.90;;;1.60;99.90;;;;;;5093409;28;20471;-76
2024/01/24 00:20:50;;;;;;;4.93;4.00;;;1.70;99.90;;;;;;5096638;28;20177;-77
2024/01/24 00:23:16;;;;;;;4.80;3.70;;;1.70;99.90;;;;;;5093119;28;20197;-77
2024/01/24 00:25:42;;;;;;;5.33;4.60;;;1.80;99.90;;;;;;5092603;28;20612;-74
2024/01/24 00:28:08;;;;;;;4.50;4.10;;;1.70;99.90;;;;;;5092907;28;20171;-75
2024/01/24 00:30:33;;;;;;;3.80;3.50;;;1.70;99.90;;;;;;5097027;28;20181;-76
2024/01/24 00:33:01;;;;;;;4.63;3.43;;;1.80;99.90;;;;;;5101654;28;20212;-77
2024/01/24 00:35:27;;;;;;;4.50;3.80;;;1.80;99.90;;;;;;5101459;28;20310;-76
2024/01/24 00:37:53;;;;;;;3.60;3.30;;;1.90;99.90;;;;;;5097492;28;20171;-74
2024/01/24 00:40:18;;;;;;;4.80;3.10;;;1.90;99.90;;;;;;5093610;28;20177;-75
2024/01/24 00:42:44;;;;;;;3.80;3.20;;;2.10;99.90;;;;;;5093027;28;20168;-77
2024/01/24 00:45:11;;;;;;;3.23;2.60;;;2.10;99.90;;;;;;5096396;28;20185;-79
2024/01/24 00:47:37;;;;;;;3.53;2.97;;;2.20;99.90;;;;;;5101650;28;20542;-76
2024/01/24 00:50:04;;;;;;;2.90;2.70;;;2.20;99.90;;;;;;5093670;28;20176;-75
2024/01/24 00:52:30;;;;;;;3.27;2.97;;;2.20;99.90;;;;;;5092878;28;20247;-75
2024/01/24 00:54:56;;;;;;;3.03;2.83;;;2.30;99.90;;;;;;5092299;28;20229;-77
2024/01/24 00:57:22;;;;;;;3.27;2.83;;;2.40;99.90;;;;;;5092313;28;20179;-77
2024/01/24 00:59:48;;;;;;;4.47;2.93;;;2.20;99.90;;;;;;5092117;28;20205;-75
2024/01/24 01:02:13;;;;;;;2.93;2.73;;;2.20;99.90;;;;;;5092163;28;20687;-75
2024/01/24 01:04:39;;;;;;;3.80;2.83;;;2.30;99.90;;;;;;5092403;28;20174;-76
2024/01/24 01:07:05;;;;;;;3.33;2.90;;;2.40;99.90;;;;;;5091959;28;20250;-77
2024/01/24 01:09:32;;;;;;;2.87;2.67;;;2.30;99.90;;;;;;5092847;28;20240;-76
2024/01/24 01:11:58;;;;;;;3.23;2.93;;;2.30;99.90;;;;;;5091153;28;20182;-75
2024/01/24 01:14:25;;;;;;;2.83;2.57;;;2.30;99.90;;;;;;5092161;28;20562;-76
2024/01/24 01:16:55;;;;;;;2.93;2.70;;;2.30;99.90;;;;;;5092436;28;20221;-79
2024/01/24 01:19:21;;;;;;;3.00;2.80;;;2.30;99.90;;;;;;5095521;28;20178;-78
2024/01/24 01:21:46;;;;;;;2.90;2.60;;;2.20;99.90;;;;;;5093386;28;20197;-77
2024/01/24 01:24:12;;;;;;;2.83;2.63;;;1.90;99.90;;;;;;5093790;28;20182;-75
2024/01/24 01:26:39;;;;;;;4.47;3.30;;;1.90;99.90;;;;;;5092661;28;20243;-77
2024/01/24 01:29:05;;;;;;;3.50;3.20;;;1.90;99.90;;;;;;5094390;28;20174;-76
2024/01/24 01:31:31;;;;;;;4.03;3.53;;;1.90;99.90;;;;;;5098474;28;20167;-77
2024/01/24 01:33:56;;;;;;;4.07;3.53;;;2.00;99.90;;;;;;5092938;28;20611;-77
2024/01/24 01:36:22;;;;;;;6.30;4.67;;;2.10;99.90;;;;;;5096589;28;20504;-77
2024/01/24 01:38:49;;;;;;;6.57;4.50;;;2.10;99.90;;;;;;5098090;28;20174;-77
2024/01/24 01:41:15;;;;;;;4.30;3.90;;;1.90;99.90;;;;;;5098158;28;20198;-78
2024/01/24 01:43:43;;;;;;;7.37;5.23;;;1.80;99.90;;;;;;5095627;28;20199;-78
2024/01/24 01:46:16;;;;;;;8.30;5.47;;;1.90;99.90;;;;;;5092126;28;20179;-75
2024/01/24 01:48:42;;;;;;;7.87;5.13;;;2.00;99.90;;;;;;5095478;28;20184;-77
2024/01/24 01:51:08;;;;;;;6.07;5.10;;;1.90;99.90;;;;;;5092518;28;20261;-75
2024/01/24 01:53:38;;;;;;;6.73;5.10;;;2.00;99.90;;;;;;5093871;28;20256;-75
2024/01/24 01:56:11;;;;;;;5.60;4.97;;;1.80;99.90;;;;;;5091912;28;20177;-76
2024/01/24 01:58:39;;;;;;;5.20;4.70;;;1.80;99.90;;;;;;5091765;28;20167;-75
2024/01/24 02:01:08;;;;;;;7.47;5.17;;;1.80;99.90;;;;;;5091501;28;20291;-76
2024/01/24 02:03:34;;;;;;;7.73;5.83;;;1.70;99.90;;;;;;5092391;28;20183;-75
2024/01/24 02:06:03;;;;;;;8.23;5.30;;;1.70;99.90;;;;;;5096891;28;20167;-77
2024/01/24 02:08:32;;;;;;;6.43;5.23;;;1.70;99.90;;;;;;5100332;28;20634;-80
2024/01/24 02:10:59;;;;;;;7.53;5.63;;;1.70;99.90;;;;;;5094372;28;20193;-76
2024/01/24 02:13:31;;;;;;;7.10;5.37;;;1.80;99.90;;;;;;5092370;28;20233;-77
2024/01/24 02:15:58;;;;;;;9.73;6.23;;;1.80;99.90;;;;;;5092386;28;20179;-76
2024/01/24 02:18:24;;;;;;;9.20;6.37;;;1.80;99.90;;;;;;5092942;28;20171;-78
2024/01/24 02:20:51;;;;;;;7.97;6.10;;;1.80;99.90;;;;;;5091383;28;20540;-76
2024/01/24 02:23:21;;;;;;;8.07;6.10;;;1.90;99.90;;;;;;5091040;28;20226;-77
2024/01/24 02:25:49;;;;;;;10.17;5.87;;;1.80;99.90;;;;;;5091454;28;20701;-76
2024/01/24 02:28:15;;;;;;;7.67;6.03;;;1.90;99.90;;;;;;5092060;28;20240;-78
2024/01/24 02:30:41;;;;;;;8.53;6.50;;;1.80;99.90;;;;;;5095551;28;20172;-79
2024/01/24 02:33:07;;;;;;;6.90;6.20;;;1.80;99.90;;;;;;5096546;28;20208;-77
2024/01/24 02:35:34;;;;;;;8.00;6.23;;;1.80;99.90;;;;;;5100074;28;20216;-79
2024/01/24 02:38:00;;;;;;;7.70;6.47;;;1.80;99.90;;;;;;5102371;28;20167;-78
2024/01/24 02:40:26;;;;;;;10.47;6.60;;;1.70;99.90;;;;;;5094670;28;20638;-75
2024/01/24 02:42:52;;;;;;;9.40;6.87;;;1.80;99.90;;;;;;5094772;28;20171;-75
2024/01/24 02:45:18;;;;;;;8.67;6.23;;;1.70;99.90;;;;;;5094447;28;20564;-77
2024/01/24 02:47:43;;;;;;;8.90;5.97;;;1.60;99.90;;;;;;5094640;28;20181;-77
2024/01/24 02:50:10;;;;;;;8.40;6.30;;;1.40;99.90;;;;;;5094474;28;20254;-76
2024/01/24 02:52:36;;;;;;;9.50;6.53;;;1.40;99.90;;;;;;5093918;28;20230;-77
2024/01/24 02:55:02;;;;;;;11.07;6.93;;;1.40;99.90;;;;;;5094442;28;20234;-77
2024/01/24 02:57:28;;;;;;;10.60;6.53;;;1.40;99.90;;;;;;5094014;28;20262;-76
2024/01/24 02:59:55;;;;;;;9.83;6.80;;;1.30;99.90;;;;;;5094410;28;20590;-76
2024/01/24 03:02:21;;;;;;;8.00;6.37;;;1.50;99.90;;;;;;5094583;28;20526;-76
2024/01/24 03:04:47;;;;;;;8.30;6.97;;;1.50;99.90;;;;;;5094781;28;20183;-76
2024/01/24 03:07:13;;;;;;;9.73;6.27;;;1.70;99.90;;;;;;5095294;28;20190;-76
2024/01/24 03:09:39;;;;;;;10.90;6.63;;;1.70;99.90;;;;;;5095078;28;20584;-76
2024/01/24 03:12:05;;;;;;;8.77;6.50;;;1.70;99.90;;;;;;5094223;28;20252;-77
2024/01/24 03:14:30;;;;;;;11.10;7.60;;;1.70;99.90;;;;;;5092410;28;20568;-76
2024/01/24 03:16:56;;;;;;;8.33;7.07;;;1.70;99.90;;;;;;5094445;28;20648;-77
2024/01/24 03:19:22;;;;;;;8.47;6.47;;;1.70;99.90;;;;;;5094444;28;20186;-76
2024/01/24 03:21:48;;;;;;;10.77;6.47;;;1.70;99.90;;;;;;5094362;28;20179;-78
2024/01/24 03:24:13;;;;;;;12.00;6.70;;;1.70;99.90;;;;;;5093514;28;20172;-76
2024/01/24 03:26:39;;;;;;;8.43;6.07;;;1.70;99.90;;;;;;5095829;28;20185;-75
2024/01/24 03:29:05;;;;;;;7.37;5.80;;;1.70;99.90;;;;;;5094606;28;20531;-76
2024/01/24 03:31:31;;;;;;;9.23;6.53;;;1.80;99.90;;;;;;5099287;28;20184;-77
2024/01/24 03:33:56;;;;;;;7.20;5.33;;;1.80;99.90;;;;;;5097510;28;20207;-76
2024/01/24 03:36:22;;;;;;;7.63;5.30;;;1.90;99.90;;;;;;5094842;28;20171;-76
2024/01/24 03:38:48;;;;;;;8.97;6.47;;;1.90;99.90;;;;;;5093493;28;20182;-75
2024/01/24 03:41:14;;;;;;;5.83;5.00;;;2.00;99.90;;;;;;5095461;28;20182;-77
2024/01/24 03:43:40;;;;;;;8.57;5.43;;;2.00;99.90;;;;;;5096701;28;20578;-78
2024/01/24 03:46:06;;;;;;;7.20;5.07;;;2.10;99.90;;;;;;5094992;28;20605;-77
2024/01/24 03:48:32;;;;;;;5.53;4.47;;;2.10;99.90;;;;;;5093855;28;20171;-76
2024/01/24 03:50:58;;;;;;;4.80;4.40;;;2.10;99.90;;;;;;5093265;28;20746;-75
2024/01/24 03:53:24;;;;;;;3.83;3.53;;;2.10;99.90;;;;;;5094594;28;20200;-77
2024/01/24 03:55:50;;;;;;;4.67;3.43;;;2.10;99.90;;;;;;5100949;28;20600;-75
2024/01/24 03:58:16;;;;;;;5.57;3.77;;;2.20;99.90;;;;;;5093984;28;20205;-75
2024/01/24 04:00:42;;;;;;;4.50;3.80;;;2.20;99.90;;;;;;5096402;28;20171;-77
2024/01/24 04:03:08;;;;;;;5.13;3.53;;;2.10;99.90;;;;;;5098569;28;20221;-76
2024/01/24 04:05:33;;;;;;;5.80;3.90;;;2.10;99.90;;;;;;5094029;28;20169;-77
2024/01/24 04:07:59;;;;;;;6.90;3.93;;;2.00;99.90;;;;;;5095062;28;20175;-77
2024/01/24 04:10:25;;;;;;;4.37;3.60;;;2.00;99.90;;;;;;5093077;28;20207;-75
2024/01/24 04:12:51;;;;;;;4.03;3.53;;;2.00;99.90;;;;;;5093232;28;20206;-75
2024/01/24 04:15:17;;;;;;;4.07;3.60;;;2.10;99.90;;;;;;5092667;28;20169;-75
2024/01/24 04:17:43;;;;;;;3.87;3.47;;;2.00;99.90;;;;;;5092928;28;20615;-77
2024/01/24 04:20:09;;;;;;;7.10;3.70;;;2.00;99.90;;;;;;5092918;28;20306;-77
2024/01/24 04:22:35;;;;;;;4.97;3.50;;;1.90;99.90;;;;;;5092810;28;20173;-76
2024/01/24 04:25:01;;;;;;;4.93;4.07;;;1.90;99.90;;;;;;5104928;28;20195;-75
2024/01/24 04:27:27;;;;;;;3.80;3.50;;;1.80;99.90;;;;;;5099751;28;20210;-76
2024/01/24 04:29:53;;;;;;;4.03;3.53;;;1.80;99.90;;;;;;5092447;28;20181;-77
2024/01/24 04:32:19;;;;;;;4.20;3.50;;;1.70;99.90;;;;;;5095889;28;20176;-76
2024/01/24 04:34:45;;;;;;;4.13;3.73;;;1.70;99.90;;;;;;5094386;28;20193;-76
2024/01/24 04:37:11;;;;;;;4.07;3.33;;;1.70;99.90;;;;;;5097073;28;20175;-75
2024/01/24 04:39:37;;;;;;;3.50;3.20;;;1.70;99.90;;;;;;5095319;28;20183;-78
2024/01/24 04:42:04;;;;;;;3.83;3.30;;;1.70;99.90;;;;;;5093835;28;20528;-76
2024/01/24 04:44:30;;;;;;;3.30;2.93;;;1.70;99.90;;;;;;5093385;28;20219;-77
2024/01/24 04:46:56;;;;;;;3.30;3.00;;;1.80;99.90;;;;;;5093619;28;20174;-78
2024/01/24 04:49:22;;;;;;;2.90;2.57;;;1.80;99.90;;;;;;5096569;28;20629;-79
2024/01/24 04:51:48;;;;;;;2.90;2.70;;;1.80;99.90;;;;;;5108861;28;20218;-78
2024/01/24 04:54:15;;;;;;;3.07;2.87;;;1.80;99.90;;;;;;5102921;28;20229;-76
2024/01/24 04:56:45;;;;;;;2.90;2.60;;;1.80;99.90;;;;;;5096225;28;20180;-76
2024/01/24 04:59:15;;;;;;;3.20;2.97;;;1.70;99.90;;;;;;5093169;28;20166;-78
2024/01/24 05:01:41;;;;;;;2.53;2.33;;;1.70;99.90;;;;;;5092346;28;20171;-78
2024/01/24 05:04:08;;;;;;;2.50;2.40;;;1.70;99.90;;;;;;5092451;28;20258;-77
2024/01/24 05:06:35;;;;;;;2.70;2.50;;;1.70;99.90;;;;;;5093387;28;20503;-78
2024/01/24 05:09:01;;;;;;;3.23;2.90;;;1.70;99.90;;;;;;5093667;28;20185;-77
2024/01/24 05:11:27;;;;;;;4.80;2.80;;;1.60;99.90;;;;;;5094921;28;20174;-79
2024/01/24 05:13:54;;;;;;;2.90;2.60;;;1.50;99.90;;;;;;5095593;28;20213;-76
2024/01/24 05:16:20;;;;;;;3.70;3.30;;;1.50;99.90;;;;;;5093089;28;20193;-77
2024/01/24 05:18:46;;;;;;;2.63;2.43;;;1.50;99.90;;;;;;5097184;28;20182;-77
2024/01/24 05:21:12;;;;;;;3.63;2.37;;;1.40;99.90;;;;;;5099211;28;20178;-75
2024/01/24 05:23:37;;;;;;;2.87;2.67;;;1.40;99.90;;;;;;5093277;28;20265;-77
2024/01/24 05:26:03;;;;;;;3.00;2.80;;;1.40;99.90;;;;;;5092373;28;20510;-76
2024/01/24 05:28:29;;;;;;;2.43;2.23;;;1.40;99.90;;;;;;5092011;28;20208;-75
2024/01/24 05:30:55;;;;;;;4.07;2.70;;;1.40;99.90;;;;;;5092046;28;20511;-76
2024/01/24 05:33:23;;;;;;;2.73;2.50;;;1.40;99.90;;;;;;5091486;28;20275;-75
2024/01/24 05:35:49;;;;;;;3.60;2.93;;;1.40;99.90;;;;;;5092043;28;20656;-77
2024/01/24 05:38:14;;;;;;;2.87;2.57;;;1.30;99.90;;;;;;5090529;28;20213;-76
2024/01/24 05:40:40;;;;;;;3.63;2.90;;;1.30;99.90;;;;;;5091937;28;20208;-76
2024/01/24 05:43:06;;;;;;;2.80;2.60;;;1.30;99.90;;;;;;5092128;28;20206;-76
2024/01/24 05:45:32;;;;;;;4.30;2.60;;;1.20;99.90;;;;;;5091734;28;20160;-75
2024/01/24 05:47:58;;;;;;;3.03;2.73;;;1.20;99.90;;;;;;5092644;28;20264;-78
2024/01/24 05:50:23;;;;;;;7.27;2.70;;;1.10;99.90;;;;;;5093978;28;20223;-79
2024/01/24 05:52:49;;;;;;;4.27;2.73;;;1.20;99.90;;;;;;5091959;28;20382;-76
2024/01/24 05:55:15;;;;;;;2.50;2.30;;;1.20;99.90;;;;;;5093807;28;20182;-78
2024/01/24 05:57:42;;;;;;;2.87;2.57;;;1.20;99.90;;;;;;5091717;28;20572;-78
2024/01/24 06:00:10;;;;;;;2.83;2.60;;;1.40;99.90;;;;;;5093451;28;20645;-76
2024/01/24 06:02:39;;;;;;;2.70;2.50;;;1.40;99.90;;;;;;5082029;28;20197;-77
2024/01/24 06:05:07;;;;;;;3.37;2.80;;;1.40;99.90;;;;;;5105047;28;20171;-75
2024/01/24 06:07:33;;;;;;;3.57;2.70;;;1.40;99.90;;;;;;5107047;28;20179;-77
2024/01/24 06:10:00;;;;;;;3.47;3.10;;;1.50;99.90;;;;;;5099327;28;20174;-77
2024/01/24 06:12:26;;;;;;;3.37;2.93;;;1.50;99.90;;;;;;5099244;28;20172;-76
2024/01/24 06:14:54;;;;;;;3.30;2.87;;;1.60;99.90;;;;;;5097024;28;20193;-75
2024/01/24 06:17:20;;;;;;;3.60;2.90;;;1.60;99.90;;;;;;5087591;28;20175;-77
2024/01/24 06:19:46;;;;;;;3.00;2.77;;;1.60;99.90;;;;;;5074624;28;20233;-77
2024/01/24 06:22:12;;;;;;;3.13;2.77;;;1.70;99.90;;;;;;5075205;28;20193;-77
2024/01/24 06:24:37;;;;;;;3.23;2.87;;;1.70;99.90;;;;;;5074878;28;20183;-76
2024/01/24 06:27:03;;;;;;;3.40;3.10;;;1.70;99.90;;;;;;5075345;28;20167;-77
2024/01/24 06:29:29;;;;;;;3.60;2.90;;;1.80;99.90;;;;;;5076855;28;20700;-76
2024/01/24 06:31:59;;;;;;;2.70;2.50;;;1.80;99.90;;;;;;5079326;28;20182;-77
2024/01/24 06:34:26;;;;;;;3.30;3.00;;;1.70;99.90;;;;;;5076899;28;20558;-77
2024/01/24 06:36:52;;;;;;;3.63;3.10;;;1.80;99.90;;;;;;5075819;28;20312;-77
2024/01/24 06:39:18;;;;;;;3.30;3.00;;;1.70;99.90;;;;;;5073398;28;20185;-78
2024/01/24 06:41:44;;;;;;;4.43;3.07;;;1.70;99.90;;;;;;5074560;28;20321;-76
2024/01/24 06:44:10;;;;;;;3.07;2.87;;;1.60;99.90;;;;;;5073236;28;20271;-79
2024/01/24 06:46:43;;;;;;;6.07;4.17;;;1.70;99.90;;;;;;5075994;28;20647;-77
2024/01/24 06:49:12;;;;;;;3.73;3.40;;;1.60;99.90;;;;;;5078105;28;20264;-76
2024/01/24 06:51:38;;;;;;;3.07;2.77;;;1.70;99.90;;;;;;5075579;28;20235;-77
2024/01/24 06:54:05;;;;;;;3.37;3.07;;;1.80;99.90;;;;;;5081628;28;20547;-77
2024/01/24 06:56:34;;;;;;;4.23;3.83;;;1.80;99.90;;;;;;5083004;28;20179;-78
2024/01/24 06:59:02;;;;;;;6.70;3.73;;;1.80;99.90;;;;;;5082835;28;20179;-77
2024/01/24 07:01:29;;;;;;;5.50;3.30;;;1.90;99.90;;;;;;5083793;28;20182;-74
2024/01/24 07:03:55;;;;;;;4.03;3.53;;;2.00;99.90;;;;;;5085051;28;20181;-79
2024/01/24 07:06:22;;;;;;;3.80;3.50;;;2.00;99.90;;;;;;5078231;28;20187;-77
2024/01/24 07:08:48;;;;;;;3.80;3.50;;;2.10;99.90;;;;;;5099061;28;20237;-77
2024/01/24 07:11:14;;;;;;;3.70;3.40;;;2.20;99.90;;;;;;5096857;28;20174;-77
2024/01/24 07:13:40;;;;;;;3.17;2.87;;;2.20;99.90;;;;;;5096694;28;20199;-75
2024/01/24 07:16:07;;;;;;;3.93;3.10;;;2.20;99.90;;;;;;5096017;28;20261;-76
2024/01/24 07:18:33;;;;;;;3.33;3.03;;;2.40;99.90;;;;;;5095638;28;20191;-76
2024/01/24 07:21:00;;;;;;;4.87;3.50;;;2.50;99.90;;;;;;5096717;28;20201;-75
2024/01/24 07:23:26;;;;;;;3.67;3.00;;;2.50;99.90;;;;;;5098487;28;20177;-75
2024/01/24 07:25:52;;;;;;;4.23;2.97;;;2.60;99.90;;;;;;5093583;28;20202;-76
2024/01/24 07:28:18;;;;;;;3.43;3.13;;;2.60;99.90;;;;;;5094654;28;20212;-77
2024/01/24 07:30:44;;;;;;;6.83;3.50;;;2.70;99.90;;;;;;5093966;28;20196;-76
2024/01/24 07:33:10;;;;;;;4.97;3.00;;;2.80;99.90;;;;;;5094010;28;20274;-75
2024/01/24 07:35:36;;;;;;;5.10;3.50;;;2.90;99.90;;;;;;5094023;28;20696;-76
2024/01/24 07:38:02;;;;;;;3.67;3.03;;;3.00;99.90;;;;;;5095230;28;20267;-75
2024/01/24 07:40:29;;;;;;;4.07;3.77;;;3.10;99.90;;;;;;5093871;28;20494;-78
2024/01/24 07:42:54;;;;;;;6.10;5.50;;;3.10;99.90;;;;;;5093832;28;20175;-75
2024/01/24 07:45:20;;;;;;;12.40;6.27;;;3.10;99.90;;;;;;5093098;28;20652;-74
2024/01/24 07:47:50;;;;;;;6.23;5.10;;;3.10;99.90;;;;;;5097419;28;20177;-76
2024/01/24 07:50:16;;;;;;;7.43;5.23;;;3.10;99.90;;;;;;5102654;28;20186;-76
2024/01/24 07:52:43;;;;;;;5.80;5.23;;;3.20;99.90;;;;;;5099047;28;20275;-76
2024/01/24 07:55:12;;;;;;;5.47;4.97;;;3.10;99.90;;;;;;5095581;28;20197;-77
2024/01/24 07:57:38;;;;;;;9.67;5.50;;;3.00;99.90;;;;;;5094094;28;20185;-77
2024/01/24 08:00:04;;;;;;;9.37;6.77;;;2.80;99.90;;;;;;5093674;28;20263;-79
2024/01/24 08:02:30;;;;;;;7.37;5.87;;;2.90;99.90;;;;;;5093594;28;20680;-78
2024/01/24 08:04:57;;;;;;;6.70;5.77;;;2.90;99.90;;;;;;5093875;28;20663;-79
2024/01/24 08:07:23;;;;;;;9.23;6.13;;;3.00;99.90;;;;;;5100414;28;20212;-75
2024/01/24 08:09:49;;;;;;;9.73;6.40;;;3.10;99.90;;;;;;5096566;28;20177;-75
2024/01/24 08:12:15;;;;;;;12.40;6.50;;;3.10;99.90;;;;;;5095860;28;20199;-77
2024/01/24 08:14:42;;;;;;;9.77;6.53;;;3.00;99.90;;;;;;5099080;28;20212;-79
2024/01/24 08:17:10;;;;;;;7.57;5.97;;;3.00;99.90;;;;;;5098503;28;20181;-76
2024/01/24 08:19:38;;;;;;;8.47;6.23;;;3.00;99.90;;;;;;5096229;28;20590;-78
2024/01/24 08:22:04;;;;;;;7.73;6.43;;;3.10;99.90;;;;;;5094399;28;20176;-76
2024/01/24 08:24:30;;;;;;;9.97;7.23;;;3.30;99.90;;;;;;5092867;28;20170;-76
2024/01/24 08:26:56;;;;;;;12.97;7.47;;;3.30;99.90;;;;;;5091683;28;20178;-76
2024/01/24 08:29:25;;;;;;;13.77;8.53;;;3.50;99.90;;;;;;5092800;28;20173;-75
2024/01/24 08:31:51;;;;;;;9.87;7.70;;;3.50;99.90;;;;;;5091767;28;20622;-78
2024/01/24 08:34:17;;;;;;;12.90;8.73;;;3.50;99.90;;;;;;5093244;28;20254;-78
2024/01/24 08:36:43;;;;;;;11.70;9.83;;;3.50;99.90;;;;;;5100097;28;20541;-74
2024/01/24 08:39:10;;;;;;;12.30;8.93;;;3.40;99.90;;;;;;5102265;28;20193;-77
2024/01/24 08:41:36;;;;;;;11.97;8.33;;;3.50;99.90;;;;;;5095106;28;20164;-75
2024/01/24 08:44:04;;;;;;;9.30;7.70;;;3.60;99.90;;;;;;5093185;28;20657;-78
2024/01/24 08:46:30;;;;;;;10.07;7.47;;;3.70;99.90;;;;;;5093220;28;20584;-77
2024/01/24 08:48:56;;;;;;;13.33;7.43;;;3.60;99.90;;;;;;5094872;28;20199;-76
2024/01/24 08:51:25;;;;;;;10.13;7.13;;;3.70;99.90;;;;;;5094745;28;20272;-75
2024/01/24 08:53:52;;;;;;;9.03;7.03;;;3.80;99.90;;;;;;5091813;28;20319;-77
2024/01/24 08:56:18;;;;;;;8.80;7.00;;;3.70;99.90;;;;;;5092834;28;20608;-77
2024/01/24 08:58:47;;;;;;;8.93;6.93;;;3.80;99.90;;;;;;5091784;28;20520;-75
2024/01/24 09:01:13;;;;;;;9.67;7.57;;;4.00;99.90;;;;;;5098252;28;20175;-76
2024/01/24 09:03:39;;;;;;;10.63;7.23;;;4.10;99.90;;;;;;5097728;28;20198;-75
2024/01/24 09:06:05;;;;;;;9.90;7.03;;;4.30;99.90;;;;;;5095480;28;20181;-78
2024/01/24 09:08:31;;;;;;;10.97;6.87;;;4.40;99.90;;;;;;5099901;28;20190;-76
2024/01/24 09:10:56;;;;;;;10.77;7.07;;;4.50;99.90;;;;;;5092963;28;20175;-75
2024/01/24 09:13:22;;;;;;;12.50;8.47;;;4.50;99.90;;;;;;5092270;28;20317;-74
2024/01/24 09:15:48;;;;;;;11.87;7.70;;;4.60;99.90;;;;;;5092586;28;20217;-74
2024/01/24 09:18:17;;;;;;;10.30;8.20;;;4.70;99.90;;;;;;5092212;28;20513;-76
2024/01/24 09:20:43;;;;;;;12.10;8.03;;;4.60;99.90;;;;;;5092274;28;20180;-75
2024/01/24 09:23:09;;;;;;;12.13;7.63;;;4.90;99.90;;;;;;5091057;28;20327;-75
2024/01/24 09:25:35;;;;;;;16.87;9.20;;;5.00;99.90;;;;;;5092357;28;20265;-75
2024/01/24 09:28:02;;;;;;;15.13;9.50;;;5.00;99.90;;;;;;5092391;28;20189;-76
2024/01/24 09:30:28;;;;;;;18.13;9.70;;;5.00;99.90;;;;;;5092186;28;20178;-77
2024/01/24 09:32:53;;;;;;;14.67;8.83;;;5.00;99.90;;;;;;5092224;28;20208;-75
2024/01/24 09:35:19;;;;;;;14.13;8.83;;;5.00;99.90;;;;;;5092409;28;20216;-76
2024/01/24 09:37:45;;;;;;;11.13;8.63;;;5.00;99.90;;;;;;5094400;28;20228;-78
2024/01/24 09:40:14;;;;;;;14.13;8.70;;;4.90;99.90;;;;;;5096951;28;20219;-77
2024/01/24 09:42:43;;;;;;;13.47;8.57;;;4.90;99.90;;;;;;5097385;28;20168;-78
2024/01/24 09:45:09;;;;;;;13.70;8.47;;;4.90;99.90;;;;;;5096501;28;20184;-77
2024/01/24 09:47:37;;;;;;;10.97;8.70;;;5.00;99.90;;;;;;5096254;28;20176;-78
2024/01/24 09:50:07;;;;;;;11.60;8.03;;;5.10;99.90;;;;;;5096307;28;20177;-76
2024/01/24 09:52:34;;;;;;;12.90;9.00;;;5.20;99.90;;;;;;5096067;28;20273;-76
2024/01/24 09:55:04;;;;;;;15.70;8.83;;;5.20;99.90;;;;;;5096457;28;20182;-76
2024/01/24 09:57:31;;;;;;;11.57;9.03;;;5.20;99.90;;;;;;5109278;28;20181;-75
2024/01/24 09:59:57;;;;;;;12.17;9.30;;;5.20;99.90;;;;;;5097148;28;20177;-75
2024/01/24 10:02:28;;;;;;;11.80;9.07;;;5.20;99.90;;;;;;5096604;28;20174;-76
2024/01/24 10:04:54;;;;;;;13.50;9.60;;;5.20;99.90;;;;;;5096080;28;20325;-76
2024/01/24 10:07:20;;;;;;;13.13;9.03;;;5.20;99.90;;;;;;5096108;28;20176;-76
2024/01/24 10:09:47;;;;;;;13.23;8.93;;;5.10;99.90;;;;;;5096420;28;20176;-78
2024/01/24 10:12:13;;;;;;;13.97;9.13;;;5.20;99.90;;;;;;5096926;28;20166;-76
2024/01/24 10:14:40;;;;;;;13.63;8.60;;;5.30;99.90;;;;;;5100778;28;20228;-76
2024/01/24 10:17:11;;;;;;;10.40;8.57;;;5.40;99.90;;;;;;5095535;28;20181;-74
2024/01/24 10:19:38;;;;;;;12.27;7.47;;;5.50;99.90;;;;;;5096267;28;20157;-78
2024/01/24 10:22:04;;;;;;;9.17;8.20;;;5.60;99.90;;;;;;5097419;28;20182;-75
2024/01/24 10:24:32;;;;;;;14.17;8.33;;;5.60;99.90;;;;;;5109171;28;20166;-77
2024/01/24 10:26:58;;;;;;;10.00;8.10;;;5.70;99.90;;;;;;5102800;28;20622;-76
2024/01/24 10:29:24;;;;;;;10.07;7.33;;;5.70;99.90;;;;;;5094689;28;20180;-75
2024/01/24 10:31:55;;;;;;;9.17;7.20;;;5.80;99.90;;;;;;5093857;28;20230;-76
2024/01/24 10:34:28;;;;;;;8.07;5.70;;;6.00;99.90;;;;;;5095224;28;20262;-76
2024/01/24 10:36:55;;;;;;;8.20;5.90;;;6.10;99.90;;;;;;5095150;28;20172;-75
2024/01/24 10:39:22;;;;;;;8.13;6.20;;;6.30;99.90;;;;;;5095407;28;20177;-75
2024/01/24 10:41:52;;;;;;;8.07;5.70;;;6.40;99.90;;;;;;5094848;28;20230;-77
2024/01/24 10:44:23;;;;;;;6.00;5.40;;;6.50;99.90;;;;;;5096497;28;20625;-76
2024/01/24 10:46:51;;;;;;;9.47;5.90;;;6.50;99.90;;;;;;5096993;28;20169;-75
2024/01/24 10:49:17;;;;;;;8.70;5.93;;;6.50;99.90;;;;;;5095893;28;20177;-75
2024/01/24 10:51:46;;;;;;;8.33;5.50;;;6.50;99.90;;;;;;5090798;28;20218;-77
2024/01/24 10:54:15;;;;;;;6.87;5.10;;;6.50;99.90;;;;;;5075935;28;20626;-76
2024/01/24 10:56:43;;;;;;;12.00;5.50;;;6.40;99.90;;;;;;5076393;28;20522;-75
2024/01/24 10:59:12;;;;;;;8.03;5.23;;;6.40;99.90;;;;;;5075355;28;20659;-75
2024/01/24 11:01:38;;;;;;;8.37;5.13;;;6.40;99.90;;;;;;5073878;28;20246;-74
2024/01/24 11:04:06;;;;;;;7.87;5.03;;;6.40;99.90;;;;;;5076400;28;20878;-77
2024/01/24 11:06:35;;;;;;;6.87;4.90;;;6.50;99.90;;;;;;5076018;28;20312;-76
2024/01/24 11:09:23;;;;;;;6.10;5.33;;;6.60;99.90;;;;;;5059059;28;20186;-75
2024/01/24 11:11:56;;;;;;;7.40;5.53;;;6.60;99.90;;;;;;5076746;28;20164;-75
2024/01/24 11:14:34;;;;;;;7.30;5.70;;;6.70;99.90;;;;;;5083563;28;20218;-79
2024/01/24 11:17:04;;;;;;;9.63;5.90;;;6.80;99.90;;;;;;5080330;28;20186;-75
2024/01/24 11:19:30;;;;;;;9.03;5.50;;;6.80;99.90;;;;;;5079327;28;20180;-76
2024/01/24 11:22:08;;;;;;;8.17;5.80;;;6.90;99.90;;;;;;5075254;28;20174;-76
2024/01/24 11:24:46;;;;;;;9.87;5.60;;;6.90;99.90;;;;;;5074534;28;20526;-77
2024/01/24 11:27:36;;;;;;;8.50;5.53;;;6.90;99.90;;;;;;5076514;28;20247;-76
2024/01/24 11:30:11;;;;;;;8.83;5.67;;;6.90;99.90;;;;;;5079316;28;20220;-79
2024/01/24 11:32:54;;;;;;;10.27;6.33;;;7.00;99.90;;;;;;5080451;28;20702;-78
2024/01/24 11:35:40;;;;;;;12.57;7.17;;;7.10;99.90;;;;;;5075148;28;20209;-76
2024/01/24 11:38:27;;;;;;;13.03;5.83;;;7.10;99.90;;;;;;5074136;28;20198;-80
2024/01/24 11:41:10;;;;;;;13.17;6.30;;;7.20;99.90;;;;;;5076012;28;20504;-77
2024/01/24 11:43:36;;;;;;;7.27;6.07;;;7.30;99.90;;;;;;5077740;28;20180;-76
2024/01/24 11:46:04;;;;;;;10.07;6.10;;;7.30;99.90;;;;;;5078477;28;20182;-77
2024/01/24 11:48:32;;;;;;;14.87;7.50;;;7.40;99.90;;;;;;5075814;28;20183;-75
2024/01/24 11:50:59;;;;;;;9.50;6.13;;;7.50;99.90;;;;;;5087573;28;20174;-75
2024/01/24 11:53:26;;;;;;;11.17;7.00;;;7.50;99.90;;;;;;5089124;28;20270;-75
2024/01/24 11:55:57;;;;;;;9.53;6.93;;;7.60;99.90;;;;;;5077725;28;20178;-77
2024/01/24 11:58:27;;;;;;;10.97;8.63;;;7.70;99.90;;;;;;5084788;28;20266;-78
2024/01/24 12:00:58;;;;;;;10.97;6.97;;;7.80;99.90;;;;;;5077924;28;20254;-78
2024/01/24 12:03:24;;;;;;;12.40;6.60;;;7.80;99.90;;;;;;5074809;28;20301;-77
2024/01/24 12:05:50;;;;;;;9.23;6.50;;;7.80;99.90;;;;;;5072377;28;20272;-78
2024/01/24 12:08:16;;;;;;;15.33;7.47;;;7.80;99.90;;;;;;5072444;28;20174;-81
2024/01/24 12:10:42;;;;;;;9.97;6.73;;;7.80;99.90;;;;;;5073576;28;20208;-76
2024/01/24 12:13:09;;;;;;;9.43;6.53;;;7.80;99.90;;;;;;5073325;28;20195;-77
2024/01/24 12:15:35;;;;;;;8.80;5.70;;;7.80;99.90;;;;;;5073406;28;20291;-78
2024/01/24 12:18:13;;;;;;;9.17;6.00;;;7.80;99.90;;;;;;5073232;28;20256;-77
2024/01/24 12:20:45;;;;;;;6.83;5.73;;;7.70;99.90;;;;;;5071590;28;20190;-75
2024/01/24 12:23:11;;;;;;;7.60;5.10;;;7.70;99.90;;;;;;5073065;28;20195;-75
2024/01/24 12:25:37;;;;;;;11.17;5.43;;;7.70;99.90;;;;;;5073290;28;20179;-79
2024/01/24 12:28:04;;;;;;;7.77;5.60;;;7.70;99.90;;;;;;5073591;28;20185;-77
2024/01/24 12:30:32;;;;;;;7.47;4.67;;;7.80;99.90;;;;;;5073449;28;20264;-77
2024/01/24 12:33:08;;;;;;;6.50;5.10;;;7.80;99.90;;;;;;5072985;28;20203;-76
2024/01/24 12:35:34;;;;;;;8.47;5.23;;;7.80;99.90;;;;;;5073461;28;20252;-77
2024/01/24 12:38:00;;;;;;;8.17;5.73;;;7.80;99.90;;;;;;5072949;28;20276;-76
2024/01/24 12:40:31;;;;;;;6.70;5.17;;;7.90;99.90;;;;;;5073182;28;20168;-77
2024/01/24 12:42:57;;;;;;;7.73;5.20;;;7.90;99.90;;;;;;5073230;28;20167;-81
2024/01/24 12:45:24;;;;;;;5.83;4.90;;;7.90;99.90;;;;;;5072804;28;20634;-82
2024/01/24 12:47:51;;;;;;;8.73;5.10;;;7.90;99.90;;;;;;5072885;28;20550;-80
2024/01/24 12:50:16;;;;;;;12.43;5.17;;;8.00;99.90;;;;;;5072862;28;20575;-81
2024/01/24 12:52:43;;;;;;;12.77;5.67;;;8.00;99.90;;;;;;5072936;28;20226;-77
2024/01/24 12:55:09;;;;;;;6.87;5.47;;;8.10;99.90;;;;;;5073205;28;20190;-78